createdAt,value
2023-03-24T00:00:31.492Z,96841.44
2023-03-24T00:03:01.319Z,96843.66
2023-03-24T00:05:30.332Z,96834.34
2023-03-24T00:10:30.456Z,96835.66
2023-03-24T00:12:58.389Z,96835.66
2023-03-24T00:15:25.833Z,96831.41
2023-03-24T00:17:55.646Z,96819.34
2023-03-24T00:20:24.460Z,96825.66
2023-03-24T00:22:58.588Z,96832.66
2023-03-24T00:25:33.664Z,96819.78
2023-03-24T00:28:01.326Z,96820.75
2023-03-24T00:30:28.760Z,96813.06
2023-03-24T00:32:58.809Z,96812.91
2023-03-24T00:35:25.707Z,96819.09
2023-03-24T00:37:52.496Z,96816.66
2023-03-24T00:40:21.799Z,96816.34
2023-03-24T00:42:50.448Z,96806.28
2023-03-24T00:45:23.057Z,96803.88
2023-03-24T00:47:53.898Z,96803.25
2023-03-24T00:50:26.979Z,96812.25
2023-03-24T00:52:56.168Z,96825.53
2023-03-24T00:55:23.359Z,96828.63
2023-03-24T00:57:50.952Z,96841.38
2023-03-24T01:00:23.747Z,96826.53
2023-03-24T01:02:55.812Z,96807.59
2023-03-24T01:05:27.693Z,96801.88
2023-03-24T01:07:58.531Z,96812.91
2023-03-24T01:10:27.103Z,96809.31
2023-03-24T01:12:58.106Z,96807.28
2023-03-24T01:15:30.073Z,96815.44
2023-03-24T01:17:57.722Z,96806.41
2023-03-24T01:20:25.426Z,96813.72
2023-03-24T01:22:52.416Z,96807.19
2023-03-24T01:25:22.693Z,96803.91
2023-03-24T01:27:52.254Z,96810.25
2023-03-24T01:30:25.448Z,96811.34
2023-03-24T01:32:53.241Z,96813.13
2023-03-24T01:35:22.825Z,96816.88
2023-03-24T01:37:50.048Z,96806.44
2023-03-24T01:40:22.073Z,96822.09
2023-03-24T01:42:49.266Z,96828.28
2023-03-24T01:45:59.143Z,96830.22
2023-03-24T01:48:38.102Z,96825.97
2023-03-24T01:51:17.448Z,96834.78
2023-03-24T01:54:08.434Z,96817.50
2023-03-24T01:56:39.811Z,96824.66
2023-03-24T01:59:14.467Z,96820.38
2023-03-24T02:01:41.788Z,96791.69
2023-03-24T02:04:09.016Z,96770.16
2023-03-24T02:06:41.163Z,96771.13
2023-03-24T02:09:10.399Z,96774.06
2023-03-24T02:11:40.153Z,96762.00
2023-03-24T02:14:08.954Z,96745.03
2023-03-24T02:17:01.395Z,96745.97
2023-03-24T02:20:14.890Z,96741.06
2023-03-24T02:23:45.964Z,96733.41
2023-03-24T02:26:30.435Z,96740.41
2023-03-24T02:29:50.907Z,96728.03
2023-03-24T02:33:06.912Z,96730.31
2023-03-24T02:36:30.198Z,96722.38
2023-03-24T02:39:29.049Z,96709.84
2023-03-24T02:42:25.200Z,96715.88
2023-03-24T02:45:26.806Z,96706.91
2023-03-24T02:48:21.978Z,96706.59
2023-03-24T02:51:00.653Z,96706.00
2023-03-24T02:53:47.815Z,96691.97
2023-03-24T02:56:33.857Z,96690.03
2023-03-24T02:59:05.781Z,96684.50
2023-03-24T03:01:43.492Z,96677.34
2023-03-24T03:04:18.650Z,96677.22
2023-03-24T03:06:56.565Z,96673.50
2023-03-24T03:09:24.775Z,96665.66
2023-03-24T03:11:57.808Z,96672.34
2023-03-24T03:14:44.081Z,96678.41
2023-03-24T03:17:49.665Z,96673.00
2023-03-24T03:20:22.591Z,96664.06
2023-03-24T03:22:59.664Z,96667.03
2023-03-24T03:25:36.867Z,96661.81
2023-03-24T03:28:06.736Z,96659.84
2023-03-24T03:30:51.111Z,96653.00
2023-03-24T03:33:27.110Z,96653.00
2023-03-24T03:36:24.686Z,96658.06
2023-03-24T03:39:16.038Z,96649.91
2023-03-24T03:41:43.570Z,96650.06
2023-03-24T03:44:11.066Z,96651.06
2023-03-24T03:46:38.453Z,96652.69
2023-03-24T03:49:07.917Z,96651.38
2023-03-24T03:51:35.316Z,96643.41
2023-03-24T03:54:11.407Z,96658.09
2023-03-24T03:56:39.061Z,96652.03
2023-03-24T03:59:07.289Z,96646.81
2023-03-24T04:01:37.581Z,96655.19
2023-03-24T04:05:05.584Z,96655.34
2023-03-24T04:08:09.843Z,96648.50
2023-03-24T04:11:01.170Z,96633.13
2023-03-24T04:13:45.444Z,96648.63
2023-03-24T04:16:54.705Z,96643.72
2023-03-24T04:20:12.363Z,96638.50
2023-03-24T04:23:18.180Z,96652.38
2023-03-24T04:26:14.800Z,96643.56
2023-03-24T04:29:08.877Z,96650.41
2023-03-24T04:32:02.530Z,96639.47
2023-03-24T04:34:41.099Z,96652.69
2023-03-24T04:37:37.837Z,96644.03
2023-03-24T04:40:11.784Z,96642.56
2023-03-24T04:42:46.301Z,96646.16
2023-03-24T04:45:16.928Z,96644.53
2023-03-24T04:47:53.553Z,96641.91
2023-03-24T04:50:39.413Z,96630.19
2023-03-24T04:53:09.063Z,96645.03
2023-03-24T04:55:50.490Z,96637.84
2023-03-24T04:58:19.151Z,96638.50
2023-03-24T05:00:46.847Z,96641.94
2023-03-24T05:03:16.249Z,96636.53
2023-03-24T05:05:48.935Z,96626.28
2023-03-24T05:08:17.062Z,96627.09
2023-03-24T05:10:45.088Z,96626.94
2023-03-24T05:13:13.257Z,96630.22
2023-03-24T05:15:40.163Z,96629.25
2023-03-24T05:18:07.358Z,96623.69
2023-03-24T05:20:34.134Z,96618.16
2023-03-24T05:23:01.808Z,96622.22
2023-03-24T05:25:28.608Z,96623.88
2023-03-24T05:27:55.542Z,96628.09
2023-03-24T05:30:23.043Z,96630.44
2023-03-24T05:32:49.843Z,96631.72
2023-03-24T05:35:16.747Z,96628.13
2023-03-24T05:37:43.970Z,96627.97
2023-03-24T05:40:12.011Z,96615.59
2023-03-24T05:42:38.794Z,96620.34
2023-03-24T05:45:06.625Z,96624.09
2023-03-24T05:47:33.513Z,96633.91
2023-03-24T05:50:00.720Z,96628.19
2023-03-24T05:52:28.869Z,96626.72
2023-03-24T05:54:55.882Z,96629.03
2023-03-24T05:57:22.918Z,96632.63
2023-03-24T05:59:49.667Z,96634.44
2023-03-24T06:02:16.450Z,96639.16
2023-03-24T06:04:48.863Z,96647.66
2023-03-24T06:07:16.352Z,96665.59
2023-03-24T06:09:46.768Z,96657.47
2023-03-24T06:12:14.565Z,96648.00
2023-03-24T06:14:41.345Z,96653.06
2023-03-24T06:17:08.630Z,96654.84
2023-03-24T06:19:38.449Z,96646.38
2023-03-24T06:22:06.173Z,96641.16
2023-03-24T06:24:34.623Z,96647.31
2023-03-24T06:27:02.208Z,96631.63
2023-03-24T06:29:32.000Z,96625.47
2023-03-24T06:31:58.776Z,96636.06
2023-03-24T06:34:26.112Z,96624.13
2023-03-24T06:36:53.326Z,96630.19
2023-03-24T06:39:20.085Z,96637.19
2023-03-24T06:41:48.414Z,96639.81
2023-03-24T06:44:15.538Z,96644.88
2023-03-24T06:46:42.305Z,96647.66
2023-03-24T06:49:09.201Z,96651.88
2023-03-24T06:51:36.175Z,96652.06
2023-03-24T06:54:04.135Z,96666.09
2023-03-24T06:56:31.351Z,96678.19
2023-03-24T06:58:58.124Z,96679.00
2023-03-24T07:01:24.931Z,96699.56
2023-03-24T07:03:51.911Z,96703.69
2023-03-24T07:06:20.174Z,96708.41
2023-03-24T07:08:46.959Z,96722.63
2023-03-24T07:11:14.543Z,96729.50
2023-03-24T07:13:41.809Z,96734.13
2023-03-24T07:16:08.762Z,96740.31
2023-03-24T07:18:35.974Z,96734.75
2023-03-24T07:21:02.739Z,96742.13
2023-03-24T07:23:30.294Z,96744.09
2023-03-24T07:25:57.091Z,96752.94
2023-03-24T07:28:23.893Z,96751.59
2023-03-24T07:30:52.040Z,96747.19
2023-03-24T07:33:20.773Z,96758.47
2023-03-24T07:35:47.712Z,96746.84
2023-03-24T07:38:14.733Z,96755.38
2023-03-24T07:40:41.483Z,96759.78
2023-03-24T07:43:08.671Z,96757.00
2023-03-24T07:45:35.485Z,96750.97
2023-03-24T07:48:02.490Z,96760.44
2023-03-24T07:50:31.370Z,96747.69
2023-03-24T07:53:00.159Z,96758.97
2023-03-24T07:55:27.492Z,96756.34
2023-03-24T07:57:54.690Z,96756.53
2023-03-24T08:00:24.697Z,96758.00
2023-03-24T08:02:53.575Z,96742.13
2023-03-24T08:05:23.046Z,96745.38
2023-03-24T08:07:53.751Z,96743.75
2023-03-24T08:10:27.523Z,96740.50
2023-03-24T08:12:55.886Z,96750.97
2023-03-24T08:15:23.856Z,96738.03
2023-03-24T08:17:51.653Z,96742.47
2023-03-24T08:20:21.174Z,96737.22
2023-03-24T08:22:49.879Z,96744.09
2023-03-24T08:25:19.356Z,96741.47
2023-03-24T08:27:47.339Z,96739.69
2023-03-24T08:30:21.647Z,96742.94
2023-03-24T08:32:52.805Z,96739.50
2023-03-24T08:35:25.444Z,96745.91
2023-03-24T08:37:52.631Z,96748.03
2023-03-24T08:40:23.915Z,96748.38
2023-03-24T08:42:54.816Z,96754.53
2023-03-24T08:45:27.206Z,96752.59
2023-03-24T08:47:56.309Z,96757.31
2023-03-24T08:50:28.072Z,96759.47
2023-03-24T08:52:58.622Z,96764.69
2023-03-24T08:55:25.508Z,96769.91
2023-03-24T08:57:53.278Z,96770.25
2023-03-24T09:00:20.994Z,96780.88
2023-03-24T09:02:52.355Z,96775.81
2023-03-24T09:05:29.304Z,96781.34
2023-03-24T09:08:04.199Z,96777.94
2023-03-24T09:10:31.043Z,96788.19
2023-03-24T09:12:57.755Z,96792.13
2023-03-24T09:15:24.642Z,96790.66
2023-03-24T09:17:51.483Z,96793.03
2023-03-24T09:20:19.751Z,96803.16
2023-03-24T09:22:48.167Z,96794.97
2023-03-24T09:25:19.146Z,96801.50
2023-03-24T09:27:46.926Z,96804.59
2023-03-24T09:30:16.516Z,96802.59
2023-03-24T09:32:45.417Z,96804.41
2023-03-24T09:35:12.918Z,96795.09
2023-03-24T09:37:42.852Z,96797.66
2023-03-24T09:40:28.459Z,96794.22
2023-03-24T09:43:20.304Z,96774.75
2023-03-24T09:45:58.657Z,96744.25
2023-03-24T09:48:51.340Z,96745.56
2023-03-24T09:51:32.546Z,96777.25
2023-03-24T09:54:08.057Z,96782.16
2023-03-24T09:56:39.477Z,96783.16
2023-03-24T09:59:16.389Z,96779.91
2023-03-24T10:01:43.557Z,96783.81
2023-03-24T10:04:21.376Z,96761.47
2023-03-24T10:06:56.203Z,96768.53
2023-03-24T10:09:28.427Z,96778.00
2023-03-24T10:12:33.316Z,96783.28
2023-03-24T10:15:46.457Z,96782.69
2023-03-24T10:18:13.142Z,96790.84
2023-03-24T10:21:04.529Z,96784.16
2023-03-24T10:23:58.160Z,96779.59
2023-03-24T10:26:38.415Z,96782.34
2023-03-24T10:29:28.705Z,96778.91
2023-03-24T10:32:06.132Z,96791.19
2023-03-24T10:34:34.947Z,96793.16
2023-03-24T10:37:04.324Z,96785.47
2023-03-24T10:39:43.558Z,96776.31
2023-03-24T10:42:31.349Z,96781.19
2023-03-24T10:44:58.928Z,96774.84
2023-03-24T10:47:32.756Z,96767.13
2023-03-24T10:50:13.039Z,96773.53
2023-03-24T10:52:46.760Z,96795.25
2023-03-24T10:55:21.119Z,96782.84
2023-03-24T10:57:59.062Z,96771.56
2023-03-24T11:00:32.266Z,96769.41
2023-03-24T11:03:11.871Z,96780.69
2023-03-24T11:05:43.043Z,96783.00
2023-03-24T11:08:39.824Z,96790.03
2023-03-24T11:11:32.298Z,96797.72
2023-03-24T11:14:02.145Z,96798.38
2023-03-24T11:16:39.162Z,96792.47
2023-03-24T11:19:22.184Z,96794.28
2023-03-24T11:21:52.556Z,96789.38
2023-03-24T11:24:20.677Z,96789.69
2023-03-24T11:26:58.523Z,96790.53
2023-03-24T11:29:27.960Z,96778.28
2023-03-24T11:31:58.883Z,96771.38
2023-03-24T11:34:42.003Z,96763.72
2023-03-24T11:37:16.020Z,96764.19
2023-03-24T11:39:44.168Z,96767.94
2023-03-24T11:42:10.905Z,96769.41
2023-03-24T11:44:53.433Z,96767.59
2023-03-24T11:47:29.504Z,96761.53
2023-03-24T11:50:10.090Z,96761.22
2023-03-24T11:52:42.908Z,96743.91
2023-03-24T11:55:37.670Z,96741.13
2023-03-24T11:58:45.730Z,96753.22
2023-03-24T12:01:21.333Z,96755.31
2023-03-24T12:04:08.068Z,96753.50
2023-03-24T12:06:58.417Z,96746.28
2023-03-24T12:09:59.068Z,96739.41
2023-03-24T12:13:22.192Z,96721.00
2023-03-24T12:16:21.685Z,96721.53
2023-03-24T12:19:19.985Z,96716.78
2023-03-24T12:22:05.968Z,96703.09
2023-03-24T12:25:08.025Z,96715.69
2023-03-24T12:27:57.856Z,96708.31
2023-03-24T12:30:57.486Z,96710.28
2023-03-24T12:34:07.794Z,96713.88
2023-03-24T12:37:02.701Z,96710.44
2023-03-24T12:39:35.608Z,96700.75
2023-03-24T12:42:15.390Z,96690.84
2023-03-24T12:44:57.178Z,96691.72
2023-03-24T12:48:12.260Z,96684.88
2023-03-24T12:50:55.925Z,96679.47
2023-03-24T12:53:49.926Z,96680.19
2023-03-24T12:56:22.946Z,96669.94
2023-03-24T12:58:53.856Z,96666.38
2023-03-24T13:01:52.347Z,96664.19
2023-03-24T13:04:47.790Z,96647.81
2023-03-24T13:07:25.522Z,96652.06
2023-03-24T13:10:04.965Z,96645.72
2023-03-24T13:13:15.501Z,96646.28
2023-03-24T13:15:51.349Z,96634.94
2023-03-24T13:18:31.014Z,96635.94
2023-03-24T13:21:13.748Z,96643.19
2023-03-24T13:24:13.604Z,96649.16
2023-03-24T13:26:55.452Z,96647.44
2023-03-24T13:29:55.074Z,96636.22
2023-03-24T13:32:24.692Z,96631.78
2023-03-24T13:35:30.530Z,96644.81
2023-03-24T13:38:18.745Z,96633.88
2023-03-24T13:40:52.458Z,96650.00
2023-03-24T13:43:29.018Z,96643.00
2023-03-24T13:46:03.182Z,96660.13
2023-03-24T13:48:44.204Z,96683.94
2023-03-24T13:51:24.411Z,96668.09
2023-03-24T13:54:15.956Z,96686.69
2023-03-24T13:56:54.937Z,96701.09
2023-03-24T13:59:58.104Z,96701.72
2023-03-24T14:02:30.806Z,96720.94
2023-03-24T14:05:31.000Z,96710.31
2023-03-24T14:08:00.946Z,96720.34
2023-03-24T14:10:47.778Z,96721.84
2023-03-24T14:13:14.401Z,96726.13
2023-03-24T14:15:57.379Z,96731.84
2023-03-24T14:18:24.417Z,96724.16
2023-03-24T14:20:57.410Z,96718.25
2023-03-24T14:23:45.706Z,96723.66
2023-03-24T14:26:29.373Z,96730.00
2023-03-24T14:28:58.176Z,96720.56
2023-03-24T14:31:35.997Z,96732.34
2023-03-24T14:34:21.030Z,96735.75
2023-03-24T14:37:00.541Z,96743.09
2023-03-24T14:39:45.505Z,96748.66
2023-03-24T14:42:34.079Z,96746.59
2023-03-24T14:45:26.843Z,96751.09
2023-03-24T14:48:02.421Z,96762.84
2023-03-24T14:50:29.822Z,96757.25
2023-03-24T14:53:03.730Z,96764.09
2023-03-24T14:55:30.980Z,96764.09
2023-03-24T14:58:43.894Z,96775.84
2023-03-24T15:01:11.913Z,96773.88
2023-03-24T15:04:05.012Z,96777.44
2023-03-24T15:06:32.099Z,96775.44
2023-03-24T15:09:06.483Z,96775.09
2023-03-24T15:11:37.491Z,96789.91
2023-03-24T15:14:07.111Z,96791.19
2023-03-24T15:16:37.841Z,96785.28
2023-03-24T15:19:22.255Z,96784.78
2023-03-24T15:21:58.046Z,96777.88
2023-03-24T15:24:31.823Z,96783.88
2023-03-24T15:27:06.943Z,96794.59
2023-03-24T15:29:39.060Z,96802.81
2023-03-24T15:32:07.210Z,96789.53
2023-03-24T15:34:33.903Z,96779.44
2023-03-24T15:37:05.233Z,96779.34
2023-03-24T15:39:39.509Z,96767.25
2023-03-24T15:42:09.367Z,96769.97
2023-03-24T15:44:41.371Z,96778.09
2023-03-24T15:47:20.234Z,96764.41
2023-03-24T15:49:51.601Z,96768.66
2023-03-24T15:52:37.526Z,96759.19
2023-03-24T15:55:27.897Z,96765.38
2023-03-24T15:57:58.952Z,96753.63
2023-03-24T16:00:38.965Z,96743.78
2023-03-24T16:03:06.870Z,96746.03
2023-03-24T16:05:35.243Z,96752.88
2023-03-24T16:08:24.071Z,96760.72
2023-03-24T16:11:07.865Z,96746.63
2023-03-24T16:13:35.341Z,96744.84
2023-03-24T16:16:44.997Z,96748.41
2023-03-24T16:19:16.294Z,96759.44
2023-03-24T16:21:43.132Z,96769.06
2023-03-24T16:24:10.258Z,96760.41
2023-03-24T16:26:37.140Z,96776.88
2023-03-24T16:29:24.690Z,96778.81
2023-03-24T16:31:55.310Z,96772.09
2023-03-24T16:34:24.111Z,96769.47
2023-03-24T16:36:54.151Z,96771.28
2023-03-24T16:39:29.038Z,96754.81
2023-03-24T16:41:56.687Z,96749.75
2023-03-24T16:44:24.806Z,96729.72
2023-03-24T16:46:54.177Z,96735.75
2023-03-24T16:49:22.697Z,96740.81
2023-03-24T16:51:50.403Z,96740.00
2023-03-24T16:54:17.405Z,96748.78
2023-03-24T16:56:44.148Z,96755.28
2023-03-24T16:59:12.413Z,96755.94
2023-03-24T17:01:44.229Z,96762.13
2023-03-24T17:04:20.446Z,96767.31
2023-03-24T17:06:52.784Z,96754.59
2023-03-24T17:09:20.619Z,96765.03
2023-03-24T17:11:59.047Z,96753.34
2023-03-24T17:14:25.963Z,96740.47
2023-03-24T17:16:53.567Z,96756.91
2023-03-24T17:19:23.136Z,96762.13
2023-03-24T17:22:06.249Z,96760.50
2023-03-24T17:24:36.445Z,96761.47
2023-03-24T17:27:04.047Z,96757.22
2023-03-24T17:29:31.537Z,96766.66
2023-03-24T17:31:58.270Z,96763.09
2023-03-24T17:34:25.133Z,96754.16
2023-03-24T17:36:52.052Z,96754.31
2023-03-24T17:39:21.058Z,96752.97
2023-03-24T17:41:47.834Z,96752.59
2023-03-24T17:44:14.645Z,96756.16
2023-03-24T17:46:41.680Z,96761.38
2023-03-24T17:49:08.503Z,96766.88
2023-03-24T17:51:35.295Z,96768.66
2023-03-24T17:54:02.430Z,96771.13
2023-03-24T17:56:29.229Z,96776.31
2023-03-24T17:58:58.608Z,96775.50
2023-03-24T18:01:28.980Z,96761.00
2023-03-24T18:03:56.759Z,96758.69
2023-03-24T18:06:23.511Z,96763.09
2023-03-24T18:08:53.653Z,96780.34
2023-03-24T18:11:20.721Z,96776.22
2023-03-24T18:13:47.643Z,96777.34
2023-03-24T18:16:21.226Z,96777.66
2023-03-24T18:18:50.873Z,96775.19
2023-03-24T18:21:18.426Z,96789.34
2023-03-24T18:23:46.263Z,96787.84
2023-03-24T18:26:14.918Z,96794.81
2023-03-24T18:28:42.689Z,96798.25
2023-03-24T18:31:21.562Z,96788.78
2023-03-24T18:33:50.619Z,96793.31
2023-03-24T18:36:21.126Z,96796.75
2023-03-24T18:38:48.990Z,96797.06
2023-03-24T18:41:17.986Z,96791.84
2023-03-24T18:43:47.566Z,96806.78
2023-03-24T18:46:15.541Z,96797.34
2023-03-24T18:48:43.616Z,96799.28
2023-03-24T18:51:11.544Z,96803.94
2023-03-24T18:53:38.632Z,96795.59
2023-03-24T18:56:08.143Z,96807.09
2023-03-24T18:58:38.108Z,96810.97
2023-03-24T19:01:12.158Z,96806.31
2023-03-24T19:03:41.451Z,96811.97
2023-03-24T19:06:11.836Z,96818.44
2023-03-24T19:08:45.769Z,96819.81
2023-03-24T19:11:14.741Z,96824.47
2023-03-24T19:13:43.925Z,96829.41
2023-03-24T19:16:12.082Z,96831.94
2023-03-24T19:18:39.344Z,96828.91
2023-03-24T19:21:06.850Z,96835.22
2023-03-24T19:23:35.170Z,96825.94
2023-03-24T19:26:03.464Z,96823.63
2023-03-24T19:28:34.575Z,96828.41
2023-03-24T19:31:09.367Z,96836.78
2023-03-24T19:33:37.375Z,96829.25
2023-03-24T19:36:06.314Z,96824.59
2023-03-24T19:38:33.444Z,96832.97
2023-03-24T19:41:10.851Z,96845.69
2023-03-24T19:43:37.808Z,96849.53
2023-03-24T19:46:06.321Z,96844.72
2023-03-24T19:48:34.138Z,96834.47
2023-03-24T19:51:01.810Z,96844.19
2023-03-24T19:53:28.623Z,96848.88
2023-03-24T19:55:58.085Z,96853.09
2023-03-24T19:58:25.508Z,96859.53
2023-03-24T20:00:52.464Z,96868.28
2023-03-24T20:03:19.380Z,96860.22
2023-03-24T20:05:46.635Z,96869.66
2023-03-24T20:08:13.678Z,96871.97
2023-03-24T20:10:41.274Z,96870.19
2023-03-24T20:13:09.041Z,96865.53
2023-03-24T20:15:36.121Z,96868.13
2023-03-24T20:18:03.293Z,96867.19
2023-03-24T20:20:30.485Z,96862.94
2023-03-24T20:22:57.428Z,96866.91
2023-03-24T20:25:24.273Z,96857.63
2023-03-24T20:27:51.150Z,96868.00
2023-03-24T20:30:20.278Z,96870.63
2023-03-24T20:32:48.113Z,96872.50
2023-03-24T20:35:15.829Z,96873.31
2023-03-24T20:37:42.660Z,96882.91
2023-03-24T20:40:10.193Z,96877.84
2023-03-24T20:42:38.207Z,96882.09
2023-03-24T20:45:07.389Z,96879.38
2023-03-24T20:47:36.323Z,96885.38
2023-03-24T20:50:04.489Z,96888.91
2023-03-24T20:52:32.618Z,96885.63
2023-03-24T20:55:01.363Z,96894.41
2023-03-24T20:57:30.078Z,96887.69
2023-03-24T20:59:56.936Z,96891.41
2023-03-24T21:02:24.531Z,96884.72
2023-03-24T21:04:51.272Z,96887.56
2023-03-24T21:07:18.110Z,96885.38
2023-03-24T21:09:44.865Z,96883.19
2023-03-24T21:12:11.823Z,96882.63
2023-03-24T21:14:38.743Z,96877.97
2023-03-24T21:17:05.833Z,96881.69
2023-03-24T21:19:32.592Z,96888.22
2023-03-24T21:21:59.358Z,96879.06
2023-03-24T21:24:26.325Z,96876.75
2023-03-24T21:26:56.827Z,96873.84
2023-03-24T21:29:24.404Z,96881.19
2023-03-24T21:31:51.450Z,96886.09
2023-03-24T21:34:18.872Z,96883.06
2023-03-24T21:36:46.038Z,96877.47
2023-03-24T21:39:12.825Z,96884.69
2023-03-24T21:41:39.868Z,96889.34
2023-03-24T21:44:09.379Z,96882.78
2023-03-24T21:46:36.876Z,96880.56
2023-03-24T21:49:05.459Z,96881.91
2023-03-24T21:51:34.743Z,96879.84
2023-03-24T21:54:04.041Z,96894.03
2023-03-24T21:56:32.763Z,96882.13
2023-03-24T21:59:00.575Z,96882.28
2023-03-24T22:01:27.865Z,96882.97
2023-03-24T22:03:55.836Z,96869.16
2023-03-24T22:06:23.103Z,96870.94
2023-03-24T22:08:53.108Z,96873.53
2023-03-24T22:11:20.119Z,96886.50
2023-03-24T22:13:47.103Z,96883.78
2023-03-24T22:16:14.508Z,96891.44
2023-03-24T22:18:41.575Z,96889.66
2023-03-24T22:21:11.010Z,96888.84
2023-03-24T22:23:40.490Z,96894.03
2023-03-24T22:26:16.642Z,96898.25
2023-03-24T22:28:44.295Z,96891.88
2023-03-24T22:31:17.131Z,96905.25
2023-03-24T22:33:44.444Z,96905.81
2023-03-24T22:36:11.924Z,96906.25
2023-03-24T22:38:42.695Z,96901.63
2023-03-24T22:41:12.769Z,96903.53
2023-03-24T22:43:40.867Z,96897.28
2023-03-24T22:46:10.244Z,96901.94
2023-03-24T22:48:39.077Z,96899.50
2023-03-24T22:51:06.729Z,96901.47
2023-03-24T22:53:33.540Z,96909.41
2023-03-24T22:56:00.754Z,96902.59
2023-03-24T22:58:27.507Z,96904.22
2023-03-24T23:00:56.660Z,96911.06
2023-03-24T23:03:23.641Z,96908.06
2023-03-24T23:05:50.602Z,96912.44
2023-03-24T23:08:18.980Z,96922.31
2023-03-24T23:10:47.318Z,96924.09
2023-03-24T23:13:14.308Z,96924.09
2023-03-24T23:15:42.416Z,96922.16
2023-03-24T23:18:10.284Z,96927.38
2023-03-24T23:20:37.375Z,96938.72
2023-03-24T23:23:05.906Z,96942.50
2023-03-24T23:25:39.972Z,96944.44
2023-03-24T23:28:06.950Z,96941.69
2023-03-24T23:30:33.801Z,96959.19
2023-03-24T23:33:01.956Z,96967.69
2023-03-24T23:35:28.820Z,96957.28
2023-03-24T23:37:55.698Z,96956.47
2023-03-24T23:40:22.672Z,96976.41
2023-03-24T23:42:49.858Z,96969.59
2023-03-24T23:45:20.138Z,96972.31
2023-03-24T23:47:51.914Z,96972.19
2023-03-24T23:50:20.791Z,96970.53
2023-03-24T23:52:47.968Z,96967.81
2023-03-24T23:55:17.481Z,96965.06
2023-03-24T23:57:44.466Z,96970.28
